Hauptseite
METAR-TAF:

METAR-TAF

Flughäfen :

Middle Wallop Airfield

Middle Wallop, England

Breite: 51-09N, Länge: 001-34W, Höhe: 91 m

Beobachtung

Neuester Wetterbericht von vor 41 Minuten, um 10:50 UTC
Wind 3 kt aus Ost/Südost
Temperatur 22°C
Luftfeuchtigkeit 50%
Luftdruck 1035 hPa
Sichtweite 10 km oder mehr
Leicht bewölkt in der Höhe von 4200 ft
Durchbrochene Bewölkung in der Höhe von 35000 ft

METAR: EGVP 271050Z 11003KT 9999 FEW042 BKN350 22/11 Q1035 NOSIG RMK BLU BLU

Zeit: 12:31 (11:31 UTC)

Prognose

Neuester Wetterbericht von vor 44 Minuten, um 10:47 UTC
Gültige Prognose vom 27 um 12 UTC bis 27 um 20 UTC
Wind 5 kt aus Nordost
Sichtweite 10 km oder mehr
Aufgelockert bewölkt in der Höhe von 4500 ft

TAF: EGVP 271047Z 2712/2720 04005KT 9999 SCT045

Wetterbeobachtungen und Prognosen von mehr als 4000 Flughäfen (METAR und TAF Bericht).

Die verfügbaren Stationen werden durch gelbe und rote Markierungen auf der Karte dargestellt.

Führen Sie die Maus auf sie, um den Namen der Station zu sehen.

Darauf klicken, um die Beobachtung von Wetterbeobachtungen und Prognosen zu sehen.

Um die Karte zu ändern : klicken Sie auf den grünen Tasten mit einem schwarzen Kreuz Zum Vergrößern, auf den grünen Button mit einem Gedankenstrich zu verkleinern, oder auf die grünen Pfeile für benachbarte Karten.


METAR-TAF: